Shirley P. Settoon — WDF9252 — position and weather

sailwx.info

Track history (hours):
 
Tides and Currents Weather Stations Pressure Air Temp Water Temp Dewpoint Dewpoint Depression Visibility Wind Speed Wind Dir Waves Ship Positions

Shirley P. Settoon

Owner: Settoon Towing, LLC, Houma, LA. More information available from US FCC via Universal Licensing System and Coast Guard Vessel Documentation Center.

Last reported at 2016-Feb-12 07:31 UTC. Time now 2016-Feb-12 09:54 UTC.
Position N 29°50' W 093°59'.

Length 32 m.

Type: Towing. MMSI: 367503240.

Date/timePositionNaut miles runAvg speedWind from/ knotsBaromVisibWave heightAir tempDewpointWater temp
2016-Feb-12 07:31N 29°50' W 093°59'0 0.0
2016-Feb-12 05:27N 29°50' W 093°59'0 0.0
2016-Feb-12 04:28N 29°50' W 093°59'0 0.0
2016-Feb-11 13:04N 29°50' W 093°59'1 1.1
2016-Feb-11 12:19N 29°49' W 093°59'2 0.8
2016-Feb-11 09:21N 29°47' W 094°01'5 5.7
2016-Feb-11 08:30N 29°44' W 094°06'7 5.0
2016-Feb-11 07:08N 29°41' W 094°12'5 5.2
2016-Feb-11 06:15N 29°38' W 094°17'  
2016-Feb-08 21:07N 30°03' W 093°43'3 5.8
2016-Feb-08 20:33N 30°04' W 093°39'5 5.1
2016-Feb-08 19:33N 30°04' W 093°33'4 4.5
2016-Feb-08 18:33N 30°04' W 093°28'4 4.4
2016-Feb-08 17:33N 30°04' W 093°23'4 3.6
2016-Feb-08 16:33N 30°05' W 093°20'3 2.9
2016-Feb-08 15:33N 30°04' W 093°16'0 0.1
2016-Feb-08 14:33N 30°04' W 093°16'1 1.4
2016-Feb-08 13:33N 30°03' W 093°16'4 3.8
2016-Feb-08 12:33N 29°60' W 093°13'4 3.9
2016-Feb-08 11:33N 29°57' W 093°10'5 4.6
2016-Feb-08 10:33N 29°56' W 093°05'4 3.8
2016-Feb-08 09:33N 29°56' W 093°01'5 5.0
2016-Feb-08 08:33N 29°56' W 092°55'7 5.4
2016-Feb-08 07:16N 29°58' W 092°47'105 3.0
2016-Feb-06 20:33N 29°32' W 090°50'4 4.4
2016-Feb-06 19:33N 29°33' W 090°45'3 3.4
2016-Feb-06 18:33N 29°36' W 090°43'2 2.4
2016-Feb-06 17:33N 29°36' W 090°40'4 3.8
2016-Feb-06 16:33N 29°35' W 090°36'4 4.4
2016-Feb-06 15:33N 29°34' W 090°31'  
Track history (hours):
 
Tides and Currents Weather Stations Pressure Air Temp Water Temp Dewpoint Dewpoint Depression Visibility Wind Speed Wind Dir Waves Ship Positions

Shirley P. Settoon

Owner: Settoon Towing, LLC, Houma, LA. More information available from US FCC via Universal Licensing System and Coast Guard Vessel Documentation Center.

Last reported at 2016-Feb-12 07:31 UTC. Time now 2016-Feb-12 09:54 UTC.
Position N 29°50' W 093°59'.

Length 32 m.

Type: Towing. MMSI: 367503240.

Date/timePositionNaut miles runAvg speedWind from/ knotsBaromVisibWave heightAir tempDewpointWater temp
2016-Feb-12 07:31N 29°50' W 093°59'0 0.0
2016-Feb-12 05:27N 29°50' W 093°59'0 0.0
2016-Feb-12 04:28N 29°50' W 093°59'0 0.0
2016-Feb-11 13:04N 29°50' W 093°59'1 1.1
2016-Feb-11 12:19N 29°49' W 093°59'2 0.8
2016-Feb-11 09:21N 29°47' W 094°01'5 5.7
2016-Feb-11 08:30N 29°44' W 094°06'7 5.0
2016-Feb-11 07:08N 29°41' W 094°12'5 5.2
2016-Feb-11 06:15N 29°38' W 094°17'  
2016-Feb-08 21:07N 30°03' W 093°43'3 5.8
2016-Feb-08 20:33N 30°04' W 093°39'5 5.1
2016-Feb-08 19:33N 30°04' W 093°33'4 4.5
2016-Feb-08 18:33N 30°04' W 093°28'4 4.4
2016-Feb-08 17:33N 30°04' W 093°23'4 3.6
2016-Feb-08 16:33N 30°05' W 093°20'3 2.9
2016-Feb-08 15:33N 30°04' W 093°16'0 0.1
2016-Feb-08 14:33N 30°04' W 093°16'1 1.4
2016-Feb-08 13:33N 30°03' W 093°16'4 3.8
2016-Feb-08 12:33N 29°60' W 093°13'4 3.9
2016-Feb-08 11:33N 29°57' W 093°10'5 4.6
2016-Feb-08 10:33N 29°56' W 093°05'4 3.8
2016-Feb-08 09:33N 29°56' W 093°01'5 5.0
2016-Feb-08 08:33N 29°56' W 092°55'7 5.4
2016-Feb-08 07:16N 29°58' W 092°47'105 3.0
2016-Feb-06 20:33N 29°32' W 090°50'4 4.4
2016-Feb-06 19:33N 29°33' W 090°45'3 3.4
2016-Feb-06 18:33N 29°36' W 090°43'2 2.4
2016-Feb-06 17:33N 29°36' W 090°40'4 3.8
2016-Feb-06 16:33N 29°35' W 090°36'4 4.4
2016-Feb-06 15:33N 29°34' W 090°31'  

Dump ship's entire track history